Time;durP1;ratioP1;P1;durP2;ratioP2;P2;SDS_P1;SDS_P2;PMS_P1;PMS_P2;Temp;Humidity;BMP_temperature;BMP_pressure;BME280_temperature;BME280_humidity;BME280_pressure;Samples;Min_cycle;Max_cycle;Signal;HPM_P1;HPM_P2
2023/10/23 00:02:26;;;;;;;29.88;9.75;;;;;;;;;;10376644;28;20251;-68
2023/10/23 00:07:26;;;;;;;30.05;7.15;;;;;;;;;;10377603;28;20033;-69
2023/10/23 00:12:26;;;;;;;27.77;7.68;;;;;;;;;;10375905;28;20243;-68
2023/10/23 00:17:27;;;;;;;30.37;6.77;;;;;;;;;;10376864;28;20024;-68
2023/10/23 00:22:27;;;;;;;34.87;7.13;;;;;;;;;;10377074;28;20053;-68
2023/10/23 00:27:27;;;;;;;24.15;7.15;;;;;;;;;;10376467;28;20085;-68
2023/10/23 00:32:27;;;;;;;30.73;7.85;;;;;;;;;;10368232;28;20046;-68
2023/10/23 00:37:28;;;;;;;29.52;6.90;;;;;;;;;;10356295;28;20063;-68
2023/10/23 00:42:28;;;;;;;27.27;6.10;;;;;;;;;;10376220;28;20216;-68
2023/10/23 00:47:28;;;;;;;31.02;6.75;;;;;;;;;;10375654;28;20022;-68
2023/10/23 00:52:29;;;;;;;30.20;7.37;;;;;;;;;;10375340;28;20097;-68
2023/10/23 00:57:30;;;;;;;23.60;5.90;;;;;;;;;;10374926;28;20161;-68
2023/10/23 01:02:31;;;;;;;27.33;6.60;;;;;;;;;;10335595;28;20317;-68
2023/10/23 01:07:31;;;;;;;26.43;5.87;;;;;;;;;;10352548;28;20320;-68
2023/10/23 01:12:31;;;;;;;22.92;6.38;;;;;;;;;;10375826;28;20022;-68
2023/10/23 01:17:31;;;;;;;21.73;7.82;;;;;;;;;;10375365;28;20060;-67
2023/10/23 01:22:32;;;;;;;23.17;6.55;;;;;;;;;;10354120;28;20022;-67
2023/10/23 01:27:32;;;;;;;24.98;6.90;;;;;;;;;;10369977;28;20081;-67
2023/10/23 01:32:32;;;;;;;24.27;7.10;;;;;;;;;;10375509;28;20124;-68
2023/10/23 01:37:32;;;;;;;23.65;6.75;;;;;;;;;;10375844;28;20663;-68
2023/10/23 01:42:33;;;;;;;23.73;8.13;;;;;;;;;;10374409;28;20032;-69
2023/10/23 01:47:33;;;;;;;23.90;6.13;;;;;;;;;;10374378;28;20454;-69
2023/10/23 01:52:33;;;;;;;23.27;6.43;;;;;;;;;;10375163;28;20320;-67
2023/10/23 01:57:34;;;;;;;25.60;6.78;;;;;;;;;;10375048;28;20211;-69
2023/10/23 02:02:34;;;;;;;23.90;6.77;;;;;;;;;;10375032;28;20053;-69
2023/10/23 02:07:34;;;;;;;45.40;8.50;;;;;;;;;;10373646;28;20247;-70
2023/10/23 02:12:34;;;;;;;23.97;7.47;;;;;;;;;;10380887;28;20033;-67
2023/10/23 02:17:35;;;;;;;31.93;6.20;;;;;;;;;;10382522;28;20295;-68
2023/10/23 02:22:35;;;;;;;36.55;7.47;;;;;;;;;;10380959;28;20030;-69
2023/10/23 02:27:35;;;;;;;30.98;6.85;;;;;;;;;;10381800;28;20361;-69
2023/10/23 02:32:36;;;;;;;28.35;7.90;;;;;;;;;;10381140;28;20315;-69
2023/10/23 02:37:36;;;;;;;28.00;7.93;;;;;;;;;;10380575;28;20041;-68
2023/10/23 02:42:36;;;;;;;36.38;10.05;;;;;;;;;;10377420;28;20212;-68
2023/10/23 02:47:37;;;;;;;34.53;9.55;;;;;;;;;;10376209;28;20083;-67
2023/10/23 02:52:38;;;;;;;21.08;7.10;;;;;;;;;;10378075;28;20356;-66
2023/10/23 02:57:38;;;;;;;23.38;8.30;;;;;;;;;;10376778;28;20433;-67
2023/10/23 03:02:38;;;;;;;28.87;7.43;;;;;;;;;;10375295;28;20227;-69
2023/10/23 03:07:38;;;;;;;33.53;6.03;;;;;;;;;;10338833;28;20030;-66
2023/10/23 03:12:39;;;;;;;26.98;8.43;;;;;;;;;;10368496;28;20084;-66
2023/10/23 03:17:39;;;;;;;30.03;7.13;;;;;;;;;;10379749;28;20044;-68
2023/10/23 03:22:39;;;;;;;19.27;7.43;;;;;;;;;;10349843;28;20013;-67
2023/10/23 03:27:41;;;;;;;34.35;6.55;;;;;;;;;;10379500;28;20228;-68
2023/10/23 03:32:41;;;;;;;32.15;7.57;;;;;;;;;;10379521;28;20481;-67
2023/10/23 03:37:41;;;;;;;35.60;6.43;;;;;;;;;;10379405;28;20017;-68
2023/10/23 03:42:42;;;;;;;31.42;9.77;;;;;;;;;;10378178;28;20201;-67
2023/10/23 03:47:42;;;;;;;26.35;7.30;;;;;;;;;;10378533;28;20022;-68
2023/10/23 03:52:42;;;;;;;30.95;7.80;;;;;;;;;;10378538;28;20033;-68
2023/10/23 03:57:42;;;;;;;25.15;6.90;;;;;;;;;;10376704;28;20025;-68
2023/10/23 04:02:43;;;;;;;26.60;8.15;;;;;;;;;;10378105;28;20030;-68
2023/10/23 04:07:43;;;;;;;26.73;8.25;;;;;;;;;;10377879;28;20470;-68
2023/10/23 04:12:43;;;;;;;19.38;6.72;;;;;;;;;;10342351;28;20022;-68
2023/10/23 04:17:44;;;;;;;32.88;8.30;;;;;;;;;;10377399;28;20032;-67
2023/10/23 04:22:44;;;;;;;22.47;7.90;;;;;;;;;;10377652;28;20033;-68
2023/10/23 04:27:44;;;;;;;25.80;7.75;;;;;;;;;;10376453;28;20326;-68
2023/10/23 04:32:44;;;;;;;27.80;7.43;;;;;;;;;;10348154;28;20046;-68
2023/10/23 04:37:45;;;;;;;29.58;8.32;;;;;;;;;;10324360;28;20312;-68
2023/10/23 04:42:45;;;;;;;31.63;8.73;;;;;;;;;;10373116;28;20034;-68
2023/10/23 04:47:45;;;;;;;35.63;8.13;;;;;;;;;;10373001;28;20129;-68
2023/10/23 04:52:45;;;;;;;36.03;8.63;;;;;;;;;;10374894;28;20079;-69
2023/10/23 04:57:46;;;;;;;33.33;9.00;;;;;;;;;;10376013;28;20088;-67
2023/10/23 05:02:46;;;;;;;38.83;9.10;;;;;;;;;;10374150;28;20422;-67
2023/10/23 05:07:47;;;;;;;28.10;9.23;;;;;;;;;;10374201;28;20063;-66
2023/10/23 05:12:49;;;;;;;24.90;9.17;;;;;;;;;;10372074;28;20445;-67
2023/10/23 05:17:49;;;;;;;34.08;8.38;;;;;;;;;;10371808;28;20029;-68
2023/10/23 05:22:50;;;;;;;38.97;10.23;;;;;;;;;;10372795;28;20040;-67
2023/10/23 05:27:50;;;;;;;32.95;10.07;;;;;;;;;;10352887;28;20367;-67
2023/10/23 05:32:50;;;;;;;47.53;9.15;;;;;;;;;;10374782;28;20056;-66
2023/10/23 05:37:50;;;;;;;38.35;9.35;;;;;;;;;;10374843;28;20034;-67
2023/10/23 05:42:51;;;;;;;25.73;8.23;;;;;;;;;;10374816;28;20280;-68
2023/10/23 05:47:51;;;;;;;25.95;8.00;;;;;;;;;;10318501;28;20027;-68
2023/10/23 05:52:51;;;;;;;30.83;7.60;;;;;;;;;;10357009;28;20041;-68
2023/10/23 05:57:52;;;;;;;28.15;7.57;;;;;;;;;;10382432;28;20022;-66
2023/10/23 06:02:52;;;;;;;34.60;8.48;;;;;;;;;;10381369;28;20026;-68
2023/10/23 06:07:52;;;;;;;30.30;6.95;;;;;;;;;;10382480;28;20021;-68
2023/10/23 06:12:53;;;;;;;25.60;7.60;;;;;;;;;;10381794;28;20064;-67
2023/10/23 06:17:53;;;;;;;29.10;7.90;;;;;;;;;;10382059;28;20026;-67
2023/10/23 06:22:53;;;;;;;27.75;7.47;;;;;;;;;;10380363;28;20022;-67
2023/10/23 06:27:53;;;;;;;26.85;7.10;;;;;;;;;;10380091;28;20065;-68
2023/10/23 06:32:54;;;;;;;29.08;8.57;;;;;;;;;;10381061;28;20026;-67
2023/10/23 06:37:54;;;;;;;33.22;7.78;;;;;;;;;;10380650;28;20033;-67
2023/10/23 06:42:54;;;;;;;30.00;6.63;;;;;;;;;;10381395;28;20264;-67
2023/10/23 06:47:55;;;;;;;28.40;8.55;;;;;;;;;;10379883;28;20088;-67
2023/10/23 06:52:55;;;;;;;41.60;7.43;;;;;;;;;;10380262;28;20084;-66
2023/10/23 06:57:55;;;;;;;35.08;7.53;;;;;;;;;;10379708;28;20030;-67
2023/10/23 07:02:55;;;;;;;38.17;9.07;;;;;;;;;;10380336;28;20021;-67
2023/10/23 07:07:55;;;;;;;32.72;9.15;;;;;;;;;;10380774;28;20030;-68
2023/10/23 07:12:56;;;;;;;18.52;7.47;;;;;;;;;;10379474;28;20025;-67
2023/10/23 07:17:56;;;;;;;38.08;7.93;;;;;;;;;;10379045;28;20351;-68
2023/10/23 07:22:56;;;;;;;30.17;9.70;;;;;;;;;;10379305;28;20022;-68
2023/10/23 07:27:58;;;;;;;31.80;8.23;;;;;;;;;;10379387;28;20030;-68
2023/10/23 07:32:59;;;;;;;29.30;9.80;;;;;;;;;;10378970;28;20029;-68
2023/10/23 07:37:59;;;;;;;26.15;8.38;;;;;;;;;;10382992;28;20014;-68
2023/10/23 07:43:00;;;;;;;29.70;9.07;;;;;;;;;;10378368;28;20041;-68
2023/10/23 07:48:00;;;;;;;35.57;9.07;;;;;;;;;;10376956;28;20394;-68
2023/10/23 07:53:00;;;;;;;25.85;8.73;;;;;;;;;;10378299;28;20071;-68
2023/10/23 07:58:01;;;;;;;35.92;9.18;;;;;;;;;;10377797;28;20026;-68
2023/10/23 08:03:01;;;;;;;43.45;9.90;;;;;;;;;;10378065;28;20312;-68
2023/10/23 08:08:01;;;;;;;33.13;8.87;;;;;;;;;;10377391;28;20135;-67
2023/10/23 08:13:02;;;;;;;37.30;8.53;;;;;;;;;;10376989;28;20030;-67
2023/10/23 08:18:02;;;;;;;30.58;8.50;;;;;;;;;;10377299;28;20010;-68
2023/10/23 08:23:02;;;;;;;44.05;9.38;;;;;;;;;;10376837;28;20034;-68
2023/10/23 08:28:02;;;;;;;47.40;11.23;;;;;;;;;;10345226;28;20033;-67
2023/10/23 08:33:05;;;;;;;30.23;9.53;;;;;;;;;;10375578;28;20080;-67
2023/10/23 08:38:05;;;;;;;44.60;9.18;;;;;;;;;;10376544;28;20018;-67
2023/10/23 08:43:05;;;;;;;35.13;9.20;;;;;;;;;;10376270;28;20304;-67
2023/10/23 08:48:06;;;;;;;34.83;10.05;;;;;;;;;;10375404;28;20053;-68
2023/10/23 08:53:10;;;;;;;41.13;9.20;;;;;;;;;;10376282;28;20332;-68
2023/10/23 08:58:12;;;;;;;37.72;10.38;;;;;;;;;;10376029;28;20033;-68
2023/10/23 09:03:12;;;;;;;32.33;8.05;;;;;;;;;;10375566;28;20014;-67
2023/10/23 09:08:13;;;;;;;27.27;8.53;;;;;;;;;;10375421;28;20019;-67
2023/10/23 09:13:13;;;;;;;28.08;8.25;;;;;;;;;;10375067;28;20310;-68
2023/10/23 09:18:14;;;;;;;28.73;8.15;;;;;;;;;;10361214;28;20301;-69
2023/10/23 09:23:15;;;;;;;28.88;7.03;;;;;;;;;;10374995;28;20029;-67
2023/10/23 09:28:15;;;;;;;24.70;7.57;;;;;;;;;;10376077;28;20207;-67
2023/10/23 09:33:16;;;;;;;36.07;8.47;;;;;;;;;;10373895;28;20438;-68
2023/10/23 09:38:16;;;;;;;26.23;7.95;;;;;;;;;;10374923;28;20018;-69
2023/10/23 09:43:18;;;;;;;36.73;8.10;;;;;;;;;;10375390;28;20089;-69
2023/10/23 09:48:20;;;;;;;36.72;9.05;;;;;;;;;;10374352;28;20304;-68
2023/10/23 09:53:20;;;;;;;25.77;7.43;;;;;;;;;;10374839;28;20054;-68
2023/10/23 09:58:22;;;;;;;28.73;7.53;;;;;;;;;;10373477;28;20030;-68
2023/10/23 10:03:24;;;;;;;30.25;8.35;;;;;;;;;;10367807;28;20232;-68
2023/10/23 10:08:25;;;;;;;26.90;6.63;;;;;;;;;;10349620;28;20040;-68
2023/10/23 10:13:27;;;;;;;31.38;7.47;;;;;;;;;;10374481;28;20080;-68
2023/10/23 10:18:28;;;;;;;30.98;7.07;;;;;;;;;;10374034;28;20084;-67
2023/10/23 10:23:29;;;;;;;34.83;7.82;;;;;;;;;;10374239;28;20068;-67
2023/10/23 10:28:29;;;;;;;33.22;7.22;;;;;;;;;;10373539;28;20338;-68
2023/10/23 10:33:30;;;;;;;34.57;6.87;;;;;;;;;;10380229;28;20307;-68
2023/10/23 10:38:32;;;;;;;32.17;6.63;;;;;;;;;;10381686;28;20024;-68
2023/10/23 10:43:33;;;;;;;36.78;5.90;;;;;;;;;;10381055;28;20029;-69
2023/10/23 10:48:44;;;;;;;35.25;7.50;;;;;;;;;;10381031;28;20026;-68
2023/10/23 10:53:48;;;;;;;30.60;6.07;;;;;;;;;;10380542;28;20077;-68
2023/10/23 10:58:48;;;;;;;29.77;6.82;;;;;;;;;;10380841;28;20038;-67
2023/10/23 11:03:48;;;;;;;30.23;5.85;;;;;;;;;;10380538;28;20092;-67
2023/10/23 11:08:50;;;;;;;28.65;6.68;;;;;;;;;;10379758;28;20263;-68
2023/10/23 11:13:52;;;;;;;26.02;6.22;;;;;;;;;;10379826;28;20437;-67
2023/10/23 11:18:52;;;;;;;24.52;6.53;;;;;;;;;;10379734;28;20426;-67
2023/10/23 11:23:55;;;;;;;27.48;5.82;;;;;;;;;;10379361;28;20022;-68
2023/10/23 11:28:56;;;;;;;30.70;5.95;;;;;;;;;;10379249;28;20350;-68
2023/10/23 11:33:56;;;;;;;31.75;6.72;;;;;;;;;;10379380;28;20075;-67
2023/10/23 11:38:56;;;;;;;18.47;5.23;;;;;;;;;;10350095;28;20301;-67
2023/10/23 11:44:00;;;;;;;26.00;4.70;;;;;;;;;;10367375;28;20033;-67
2023/10/23 11:49:01;;;;;;;19.85;4.93;;;;;;;;;;10377937;28;20040;-67
2023/10/23 11:54:03;;;;;;;34.50;5.80;;;;;;;;;;10378520;28;20350;-69
2023/10/23 11:59:04;;;;;;;31.38;4.88;;;;;;;;;;10377990;28;20025;-67
2023/10/23 12:04:05;;;;;;;21.52;5.25;;;;;;;;;;10377333;28;20022;-68
2023/10/23 12:09:06;;;;;;;32.42;5.57;;;;;;;;;;10377793;28;20092;-67
2023/10/23 12:14:06;;;;;;;32.28;6.68;;;;;;;;;;10377337;28;20013;-68
2023/10/23 12:19:09;;;;;;;37.92;5.72;;;;;;;;;;10377668;28;20034;-67
2023/10/23 12:24:09;;;;;;;20.63;5.60;;;;;;;;;;10375995;28;20225;-68
2023/10/23 12:29:12;;;;;;;32.80;6.85;;;;;;;;;;10376717;28;20026;-67
2023/10/23 12:34:13;;;;;;;21.35;5.88;;;;;;;;;;10376918;28;20093;-68
2023/10/23 12:39:13;;;;;;;25.20;6.63;;;;;;;;;;10377198;28;20232;-67
2023/10/23 12:44:13;;;;;;;23.45;5.22;;;;;;;;;;10376200;28;20033;-68
2023/10/23 12:49:13;;;;;;;31.55;6.28;;;;;;;;;;10375753;28;20295;-69
2023/10/23 12:54:14;;;;;;;29.77;5.20;;;;;;;;;;10376195;28;20040;-68
2023/10/23 12:59:14;;;;;;;33.15;5.80;;;;;;;;;;10375902;28;20068;-68
2023/10/23 13:04:14;;;;;;;42.92;5.80;;;;;;;;;;10375162;28;20029;-68
2023/10/23 13:09:15;;;;;;;25.20;4.63;;;;;;;;;;10375818;28;20089;-68
2023/10/23 13:14:15;;;;;;;21.85;5.07;;;;;;;;;;10375801;28;20316;-68
2023/10/23 13:19:15;;;;;;;28.40;5.22;;;;;;;;;;10375865;28;20029;-68
2023/10/23 13:24:17;;;;;;;28.50;6.30;;;;;;;;;;10373909;28;20308;-68
2023/10/23 13:29:19;;;;;;;26.92;5.60;;;;;;;;;;10381160;28;20084;-69
2023/10/23 13:34:20;;;;;;;29.48;5.40;;;;;;;;;;10374071;28;20026;-68
2023/10/23 13:39:20;;;;;;;22.40;5.53;;;;;;;;;;10373550;28;20346;-68
2023/10/23 13:44:20;;;;;;;33.05;4.95;;;;;;;;;;10374418;28;20069;-67
2023/10/23 13:49:20;;;;;;;33.88;4.75;;;;;;;;;;10374841;28;20109;-67
2023/10/23 13:54:21;;;;;;;28.60;6.13;;;;;;;;;;10373939;28;20362;-68
2023/10/23 13:59:21;;;;;;;23.30;5.47;;;;;;;;;;10371657;28;20022;-67
2023/10/23 14:04:21;;;;;;;17.92;6.57;;;;;;;;;;10372542;28;20018;-68
2023/10/23 14:09:21;;;;;;;26.17;5.72;;;;;;;;;;10380777;28;20040;-67
2023/10/23 14:14:22;;;;;;;26.08;5.88;;;;;;;;;;10382447;28;20025;-65
2023/10/23 14:19:22;;;;;;;30.52;5.55;;;;;;;;;;10338222;28;20220;-70
2023/10/23 14:24:26;;;;;;;27.27;6.70;;;;;;;;;;10319036;28;20251;-71
2023/10/23 14:29:26;;;;;;;38.30;7.72;;;;;;;;;;10314734;28;20206;-69
2023/10/23 14:34:27;;;;;;;33.63;5.65;;;;;;;;;;10314547;28;20038;-69
2023/10/23 14:39:27;;;;;;;28.15;6.28;;;;;;;;;;10322650;28;20459;-68
2023/10/23 14:44:29;;;;;;;31.00;7.50;;;;;;;;;;10374848;28;20288;-68
2023/10/23 14:49:29;;;;;;;37.53;5.57;;;;;;;;;;10379659;28;20033;-68
2023/10/23 14:54:30;;;;;;;34.78;6.00;;;;;;;;;;10379539;28;20042;-67
2023/10/23 14:59:30;;;;;;;22.92;4.47;;;;;;;;;;10379655;28;20028;-68
2023/10/23 15:04:30;;;;;;;27.97;5.90;;;;;;;;;;10379347;28;20041;-67
2023/10/23 15:09:30;;;;;;;36.30;6.22;;;;;;;;;;10379165;28;20044;-68
2023/10/23 15:14:31;;;;;;;26.10;5.20;;;;;;;;;;10378910;28;20025;-68
2023/10/23 15:19:31;;;;;;;23.42;4.95;;;;;;;;;;10375293;28;20296;-68
2023/10/23 15:24:31;;;;;;;27.38;6.45;;;;;;;;;;10339686;28;20023;-68
2023/10/23 15:29:31;;;;;;;51.95;6.90;;;;;;;;;;10377519;28;20029;-69
2023/10/23 15:34:32;;;;;;;32.60;6.15;;;;;;;;;;10378737;28;20025;-67
2023/10/23 15:39:36;;;;;;;29.63;6.23;;;;;;;;;;10377800;28;20287;-67
2023/10/23 15:44:36;;;;;;;33.55;6.45;;;;;;;;;;10376521;28;20026;-68
2023/10/23 15:49:36;;;;;;;24.77;5.60;;;;;;;;;;10375075;28;20042;-67
2023/10/23 15:54:37;;;;;;;28.40;7.00;;;;;;;;;;10376015;28;20250;-67
2023/10/23 15:59:37;;;;;;;33.42;6.30;;;;;;;;;;10377299;28;20022;-67
2023/10/23 16:04:38;;;;;;;31.98;7.93;;;;;;;;;;10377048;28;20271;-67
2023/10/23 16:09:38;;;;;;;32.10;8.02;;;;;;;;;;10376157;28;20029;-67
2023/10/23 16:14:38;;;;;;;38.22;6.47;;;;;;;;;;10346507;28;20320;-68
2023/10/23 16:19:39;;;;;;;21.80;6.83;;;;;;;;;;10376778;28;20323;-67
2023/10/23 16:24:39;;;;;;;37.93;8.53;;;;;;;;;;10323803;28;20022;-68
2023/10/23 16:29:39;;;;;;;28.37;6.83;;;;;;;;;;10311654;28;20046;-69
2023/10/23 16:34:40;;;;;;;18.13;5.53;;;;;;;;;;10302621;28;20064;-68
2023/10/23 16:39:40;;;;;;;27.25;7.15;;;;;;;;;;10307127;28;20022;-69
2023/10/23 16:44:40;;;;;;;30.70;5.72;;;;;;;;;;10322794;28;20026;-70
2023/10/23 16:49:41;;;;;;;34.28;7.07;;;;;;;;;;10322055;28;20050;-71
2023/10/23 16:54:41;;;;;;;33.97;6.70;;;;;;;;;;10324276;28;20076;-71
2023/10/23 16:59:45;;;;;;;27.80;5.95;;;;;;;;;;10321929;28;20392;-71
2023/10/23 17:04:46;;;;;;;29.25;6.63;;;;;;;;;;10319469;28;20113;-70
2023/10/23 17:09:46;;;;;;;23.63;5.97;;;;;;;;;;10320509;28;20034;-70
2023/10/23 17:14:47;;;;;;;30.55;5.35;;;;;;;;;;10315810;28;20317;-69
2023/10/23 17:19:48;;;;;;;25.30;7.77;;;;;;;;;;10312474;28;20092;-71
2023/10/23 17:24:48;;;;;;;32.05;6.47;;;;;;;;;;10332476;28;20073;-72
2023/10/23 17:29:49;;;;;;;29.95;8.32;;;;;;;;;;10323468;28;20034;-77
2023/10/23 17:34:49;;;;;;;32.65;7.07;;;;;;;;;;10320446;28;20106;-73
2023/10/23 17:39:49;;;;;;;29.13;6.50;;;;;;;;;;10320977;28;20037;-73
2023/10/23 17:44:49;;;;;;;33.85;7.65;;;;;;;;;;10330711;28;20285;-75
2023/10/23 17:49:52;;;;;;;24.23;5.43;;;;;;;;;;10329084;28;20416;-76
2023/10/23 17:54:52;;;;;;;26.25;5.53;;;;;;;;;;10331536;28;20046;-78
2023/10/23 17:59:52;;;;;;;31.27;7.50;;;;;;;;;;10330248;28;20730;-75
2023/10/23 18:04:52;;;;;;;24.97;6.47;;;;;;;;;;10333101;28;20030;-72
2023/10/23 18:09:53;;;;;;;26.40;8.15;;;;;;;;;;10332245;28;20073;-69
2023/10/23 18:14:53;;;;;;;27.13;8.35;;;;;;;;;;10330257;28;20105;-72
2023/10/23 18:19:53;;;;;;;27.90;8.23;;;;;;;;;;10339418;22;20116;-75
2023/10/23 18:24:54;;;;;;;30.17;7.20;;;;;;;;;;10352219;28;20124;-77
2023/10/23 18:29:55;;;;;;;32.63;7.93;;;;;;;;;;10339930;28;20033;-78
2023/10/23 18:34:56;;;;;;;26.88;8.88;;;;;;;;;;10360336;28;20029;-73
2023/10/23 18:39:57;;;;;;;27.95;7.18;;;;;;;;;;10357858;28;20080;-72
2023/10/23 18:45:03;;;;;;;33.65;6.90;;;;;;;;;;10355935;28;20036;-78
2023/10/23 18:50:04;;;;;;;29.27;6.95;;;;;;;;;;10353071;28;20696;-78
2023/10/23 18:55:04;;;;;;;30.08;6.35;;;;;;;;;;10356276;28;20091;-74
2023/10/23 19:00:05;;;;;;;22.77;6.80;;;;;;;;;;10354250;28;20052;-75
2023/10/23 19:05:06;;;;;;;22.85;6.00;;;;;;;;;;10354481;28;20038;-77
2023/10/23 19:10:09;;;;;;;36.00;7.72;;;;;;;;;;10342162;28;20061;-76
2023/10/23 19:15:09;;;;;;;24.33;7.45;;;;;;;;;;10322075;28;20029;-73
2023/10/23 19:20:10;;;;;;;34.03;7.33;;;;;;;;;;10314541;28;20077;-74
2023/10/23 19:25:10;;;;;;;32.20;7.38;;;;;;;;;;10327051;28;20026;-76
2023/10/23 19:30:11;;;;;;;30.37;5.67;;;;;;;;;;10324018;28;20511;-74
2023/10/23 19:35:12;;;;;;;28.67;6.85;;;;;;;;;;10324741;28;20018;-75
2023/10/23 19:40:12;;;;;;;28.95;11.43;;;;;;;;;;10330977;28;20030;-74
2023/10/23 19:45:13;;;;;;;25.00;8.75;;;;;;;;;;10328292;28;20025;-79
2023/10/23 19:50:13;;;;;;;37.88;8.93;;;;;;;;;;10328074;28;20084;-76
2023/10/23 19:55:14;;;;;;;34.78;8.45;;;;;;;;;;10322677;28;20030;-73
2023/10/23 20:00:16;;;;;;;40.55;8.35;;;;;;;;;;10334951;28;20031;-73
2023/10/23 20:05:16;;;;;;;24.23;7.47;;;;;;;;;;10328836;28;20727;-74
2023/10/23 20:10:17;;;;;;;31.37;7.73;;;;;;;;;;10323221;28;20175;-73
2023/10/23 20:15:17;;;;;;;38.43;8.20;;;;;;;;;;10311003;28;20518;-74
2023/10/23 20:20:17;;;;;;;21.87;6.60;;;;;;;;;;10322721;28;20430;-75
2023/10/23 20:25:18;;;;;;;25.67;6.60;;;;;;;;;;10323591;28;20361;-77
2023/10/23 20:30:18;;;;;;;24.40;7.70;;;;;;;;;;10320793;28;20014;-80
2023/10/23 20:35:18;;;;;;;26.70;9.07;;;;;;;;;;10313181;28;20018;-79
2023/10/23 20:40:19;;;;;;;27.60;6.90;;;;;;;;;;10305036;28;20301;-76
2023/10/23 20:45:20;;;;;;;27.30;7.23;;;;;;;;;;10309181;28;20018;-74
2023/10/23 20:50:23;;;;;;;27.55;7.45;;;;;;;;;;10323670;28;21007;-73
2023/10/23 20:55:23;;;;;;;25.50;6.47;;;;;;;;;;10318203;28;20018;-77
2023/10/23 21:00:23;;;;;;;30.50;6.38;;;;;;;;;;10307284;28;20029;-75
2023/10/23 21:05:24;;;;;;;21.17;6.15;;;;;;;;;;10296648;28;20027;-81
2023/10/23 21:10:24;;;;;;;29.70;6.70;;;;;;;;;;10296642;28;20046;-74
2023/10/23 21:15:24;;;;;;;42.13;8.50;;;;;;;;;;10308488;28;20083;-75
2023/10/23 21:20:25;;;;;;;25.95;8.27;;;;;;;;;;10314312;28;20500;-74
2023/10/23 21:25:25;;;;;;;28.25;7.68;;;;;;;;;;10318582;28;20092;-74
2023/10/23 21:30:25;;;;;;;28.02;6.47;;;;;;;;;;10319565;28;20033;-77
2023/10/23 21:35:25;;;;;;;24.03;6.63;;;;;;;;;;10317673;28;20030;-75
2023/10/23 21:40:26;;;;;;;22.80;6.77;;;;;;;;;;10298245;28;20690;-75
2023/10/23 21:45:26;;;;;;;26.95;7.00;;;;;;;;;;10316303;28;20341;-76
2023/10/23 21:50:26;;;;;;;24.67;6.28;;;;;;;;;;10319604;28;20015;-78
2023/10/23 21:55:27;;;;;;;21.77;6.30;;;;;;;;;;10317963;28;20567;-76
2023/10/23 22:00:28;;;;;;;28.13;7.03;;;;;;;;;;10319357;28;20146;-73
2023/10/23 22:05:30;;;;;;;26.23;6.53;;;;;;;;;;10319126;28;20374;-80
2023/10/23 22:10:31;;;;;;;27.17;6.50;;;;;;;;;;10318045;28;20282;-74
2023/10/23 22:15:31;;;;;;;28.97;7.17;;;;;;;;;;10319721;28;20426;-74
2023/10/23 22:20:31;;;;;;;23.15;5.93;;;;;;;;;;10318850;28;20061;-78
2023/10/23 22:25:31;;;;;;;25.50;7.40;;;;;;;;;;10319271;28;20414;-74
2023/10/23 22:30:33;;;;;;;20.92;5.03;;;;;;;;;;10326339;28;20091;-82
2023/10/23 22:35:35;;;;;;;26.77;7.05;;;;;;;;;;10309170;28;20397;-77
2023/10/23 22:40:35;;;;;;;26.45;6.50;;;;;;;;;;10325237;28;20023;-80
2023/10/23 22:45:36;;;;;;;33.28;7.05;;;;;;;;;;10325451;28;20041;-74
2023/10/23 22:50:36;;;;;;;23.48;5.53;;;;;;;;;;10324884;28;20049;-78
2023/10/23 22:55:37;;;;;;;29.73;6.70;;;;;;;;;;10324644;28;20021;-72
2023/10/23 23:00:37;;;;;;;16.90;4.72;;;;;;;;;;10326959;28;20022;-76
2023/10/23 23:05:39;;;;;;;24.00;5.38;;;;;;;;;;10324374;28;20114;-79
2023/10/23 23:10:39;;;;;;;22.75;5.15;;;;;;;;;;10325032;28;20022;-78
2023/10/23 23:15:42;;;;;;;34.17;6.70;;;;;;;;;;10326480;28;20026;-73
2023/10/23 23:20:43;;;;;;;20.88;5.80;;;;;;;;;;10324978;28;20061;-74
2023/10/23 23:25:44;;;;;;;17.27;4.80;;;;;;;;;;10323598;28;20410;-73
2023/10/23 23:30:44;;;;;;;23.17;5.93;;;;;;;;;;10320020;28;20454;-73
2023/10/23 23:35:44;;;;;;;17.70;4.78;;;;;;;;;;10323018;28;20023;-73
2023/10/23 23:40:44;;;;;;;29.00;6.15;;;;;;;;;;10323608;28;20034;-76
2023/10/23 23:45:45;;;;;;;17.33;6.57;;;;;;;;;;10324086;28;20035;-78
2023/10/23 23:50:45;;;;;;;21.23;6.10;;;;;;;;;;10325997;28;20042;-79
2023/10/23 23:55:45;;;;;;;21.55;5.63;;;;;;;;;;10324057;28;20022;-78
